OIZJ  Jask Airport

Add Bookmark

Jask, Iran

Status
Operational
Latitude Longitude
25° 39' 12" N 57° 47' 57" E
25.653601 57.799301
Local (DST + 5) UTC (GMT + 4)
Oct 31, 2014 08:28 Oct 31, 2014 16:58
Sunrise-Sunset Local UTC
Begin Civil Twilight 05:21 01:51
Sunrise 05:45 02:15
Sunset 04:59 13:29
End Civil Twilight 05:23 13:53

Current Weather

METAR Observed MVFR
OIZJ 311600Z 12006KT 5000 HZ SKC 28/19 Q1012 Fri, Oct 31, 2014 @ 16:00 UTC
(58 Minutes ago)
Marginal Visual Flight Rules
Wind Visibility Clouds Conditions
120° at 6 knots (11 kph) 5000 meters
  • Clear skies
  • Haze
Temperatures Readings Precipitation
Current Temp 28°C (82°F)
Dewpoint 19°C (66°F)
Heat Index 29°C (84°F)
Humidity 58%
Altimeter 29.88"Hg
Sea Level Pressure 1012mb
Field Elevation 13.12'
None Recorded

Additional weather within a 185.2km radius of OIZJ

Map ICAO Location
OMFJ 159.8km W (248°)
OIKO 178.5km N (337°)

24 Hour Weather History

Loading
-

24 Hour Weather Graphs

Loading
-

CheckWX.com is intended as a tool to help pilots better visualize weather data. It is not intended as a substitute for an official weather briefing obtained from a Flight Service Station. CheckWX.com does not meet the FAA requirements for an official pre-flight weather briefing. Therefore, it's important that pilots still call and obtain an official FSS pre-flight weather briefing.